QFA540 YSSY-YBBN
Flight info
| Callsign | QFA540 |
|---|---|
| Flight time | 1h 8m |
| Altitude | 37000 |
| Route | OLSEM Y193 BANDA H252 GOMOL |
| Aircraft | A320/M-SDE3FGHIRWYZ/LB1 |
Departure
| Time | 2026-04-25 20:00 |
|---|---|
| Airport | Sydney Kingsford Smith International Airport (YSSY) |
Arrival
| Time | 2026-04-25 21:09 |
|---|---|
| Airport | Brisbane International Airport (YBBN) |
| Time | Latitude | Longitude | Altitude | Speed | Heading |
|---|---|---|---|---|---|
| 2026-04-25 19:28 | -33.93187 | 151.18024 | 30 ft | 0 kts | 189° |
| 2026-04-25 19:43 | -33.93185 | 151.18024 | 31 ft | 2 kts | 189° |
| 2026-04-25 19:43 | -33.93159 | 151.18029 | 31 ft | 4 kts | 189° |
| 2026-04-25 19:44 | -33.93133 | 151.18034 | 31 ft | 4 kts | 189° |
| 2026-04-25 19:44 | -33.93106 | 151.18040 | 31 ft | 4 kts | 189° |
| 2026-04-25 19:44 | -33.93098 | 151.18041 | 31 ft | 0 kts | 189° |
| 2026-04-25 19:49 | -33.93097 | 151.18029 | 31 ft | 2 kts | 288° |
| 2026-04-25 19:49 | -33.93091 | 151.17998 | 31 ft | 5 kts | 282° |
| 2026-04-25 19:50 | -33.93071 | 151.17860 | 31 ft | 10 kts | 279° |
| 2026-04-25 19:50 | -33.93059 | 151.17780 | 31 ft | 8 kts | 281° |
| 2026-04-25 19:50 | -33.93036 | 151.17710 | 30 ft | 10 kts | 300° |
| 2026-04-25 19:51 | -33.93012 | 151.17637 | 30 ft | 10 kts | 280° |
| 2026-04-25 19:51 | -33.92999 | 151.17554 | 30 ft | 8 kts | 281° |
| 2026-04-25 19:51 | -33.92986 | 151.17476 | 28 ft | 12 kts | 281° |
| 2026-04-25 19:51 | -33.92966 | 151.17345 | 21 ft | 13 kts | 279° |
| 2026-04-25 19:52 | -33.92961 | 151.17312 | 20 ft | 0 kts | 281° |
| 2026-04-25 19:58 | -33.92952 | 151.17256 | 21 ft | 13 kts | 280° |
| 2026-04-25 19:59 | -33.92992 | 151.17175 | 22 ft | 10 kts | 185° |
| 2026-04-25 19:59 | -33.93019 | 151.17181 | 19 ft | 0 kts | 168° |
| 2026-04-25 19:59 | -33.93116 | 151.17205 | 21 ft | 50 kts | 168° |
| 2026-04-25 19:59 | -33.93728 | 151.17364 | 16 ft | 126 kts | 168° |
| 2026-04-25 20:00 | -33.94780 | 151.17639 | 52 ft | 179 kts | 168° |
| 2026-04-25 20:00 | -33.95190 | 151.17749 | 265 ft | 177 kts | 168° |
| 2026-04-25 20:00 | -33.97171 | 151.18280 | 1604 ft | 179 kts | 167° |
| 2026-04-25 20:00 | -33.98394 | 151.18607 | 2286 ft | 182 kts | 166° |
| 2026-04-25 20:01 | -34.00339 | 151.20237 | 3374 ft | 186 kts | 103° |
| 2026-04-25 20:01 | -34.00304 | 151.21837 | 3643 ft | 205 kts | 66° |
| 2026-04-25 20:01 | -33.99506 | 151.23357 | 4020 ft | 227 kts | 50° |
| 2026-04-25 20:02 | -33.98437 | 151.24898 | 4502 ft | 251 kts | 48° |
| 2026-04-25 20:02 | -33.97253 | 151.26528 | 5255 ft | 263 kts | 45° |
| 2026-04-25 20:02 | -33.95901 | 151.28043 | 6141 ft | 268 kts | 41° |
| 2026-04-25 20:02 | -33.94489 | 151.29540 | 7071 ft | 272 kts | 40° |
| 2026-04-25 20:03 | -33.93050 | 151.31044 | 7937 ft | 277 kts | 40° |
| 2026-04-25 20:03 | -33.91582 | 151.32574 | 8822 ft | 281 kts | 41° |
| 2026-04-25 20:03 | -33.90092 | 151.34127 | 9671 ft | 286 kts | 41° |
| 2026-04-25 20:03 | -33.88565 | 151.35718 | 10350 ft | 297 kts | 41° |
| 2026-04-25 20:04 | -33.86953 | 151.37396 | 10722 ft | 318 kts | 41° |
| 2026-04-25 20:04 | -33.85226 | 151.39197 | 11053 ft | 336 kts | 41° |
| 2026-04-25 20:04 | -33.83438 | 151.41065 | 11700 ft | 343 kts | 41° |
| 2026-04-25 20:04 | -33.81625 | 151.42959 | 12435 ft | 347 kts | 41° |
| 2026-04-25 20:05 | -33.79792 | 151.44869 | 13176 ft | 351 kts | 41° |
| 2026-04-25 20:05 | -33.77936 | 151.46804 | 13903 ft | 355 kts | 41° |
| 2026-04-25 20:05 | -33.76061 | 151.48763 | 14571 ft | 359 kts | 42° |
| 2026-04-25 20:05 | -33.74169 | 151.50736 | 15221 ft | 362 kts | 42° |
| 2026-04-25 20:06 | -33.72283 | 151.52695 | 15873 ft | 364 kts | 42° |
| 2026-04-25 20:06 | -33.70360 | 151.54694 | 16512 ft | 367 kts | 42° |
| 2026-04-25 20:06 | -33.68421 | 151.56713 | 17140 ft | 371 kts | 42° |
| 2026-04-25 20:06 | -33.66462 | 151.58751 | 17787 ft | 374 kts | 42° |
| 2026-04-25 20:07 | -33.64446 | 151.60751 | 18424 ft | 379 kts | 37° |
| 2026-04-25 20:07 | -33.62233 | 151.62512 | 19009 ft | 383 kts | 34° |
| 2026-04-25 20:07 | -33.59999 | 151.64265 | 19612 ft | 386 kts | 35° |
| 2026-04-25 20:07 | -33.57742 | 151.66038 | 20223 ft | 389 kts | 35° |
| 2026-04-25 20:08 | -33.55475 | 151.67821 | 20837 ft | 392 kts | 35° |
| 2026-04-25 20:08 | -33.53187 | 151.69622 | 21437 ft | 395 kts | 35° |
| 2026-04-25 20:08 | -33.50873 | 151.71415 | 22018 ft | 398 kts | 32° |
| 2026-04-25 20:08 | -33.48355 | 151.72852 | 22581 ft | 404 kts | 22° |
| 2026-04-25 20:09 | -33.45638 | 151.73814 | 23133 ft | 409 kts | 17° |
| 2026-04-25 20:09 | -33.42886 | 151.74694 | 23678 ft | 412 kts | 17° |
| 2026-04-25 20:09 | -33.40106 | 151.75578 | 24160 ft | 415 kts | 17° |
| 2026-04-25 20:09 | -33.37307 | 151.76474 | 24598 ft | 418 kts | 17° |
| 2026-04-25 20:10 | -33.36391 | 151.76770 | 24739 ft | 419 kts | 17° |
| 2026-04-25 20:10 | -33.32617 | 151.77995 | 25305 ft | 423 kts | 17° |
| 2026-04-25 20:10 | -33.29762 | 151.78923 | 25713 ft | 426 kts | 17° |
| 2026-04-25 20:10 | -33.26896 | 151.79853 | 26122 ft | 429 kts | 17° |
| 2026-04-25 20:11 | -33.24011 | 151.80784 | 26516 ft | 431 kts | 17° |
| 2026-04-25 20:11 | -33.21103 | 151.81718 | 26922 ft | 434 kts | 17° |
| 2026-04-25 20:11 | -33.18176 | 151.82659 | 27309 ft | 437 kts | 17° |
| 2026-04-25 20:11 | -33.15230 | 151.83608 | 27702 ft | 439 kts | 17° |
| 2026-04-25 20:12 | -33.12268 | 151.84561 | 28093 ft | 442 kts | 17° |
| 2026-04-25 20:12 | -33.09285 | 151.85522 | 28462 ft | 446 kts | 17° |
| 2026-04-25 20:12 | -33.06286 | 151.86486 | 28833 ft | 448 kts | 17° |
| 2026-04-25 20:12 | -33.04286 | 151.87127 | 29086 ft | 450 kts | 17° |
| 2026-04-25 20:13 | -33.00223 | 151.88429 | 29579 ft | 454 kts | 17° |
| 2026-04-25 20:13 | -32.97164 | 151.89410 | 29946 ft | 457 kts | 17° |
| 2026-04-25 20:13 | -32.94088 | 151.90397 | 30306 ft | 459 kts | 17° |
| 2026-04-25 20:13 | -32.90992 | 151.91390 | 30617 ft | 462 kts | 17° |
| 2026-04-25 20:14 | -32.87875 | 151.92389 | 30902 ft | 465 kts | 17° |
| 2026-04-25 20:14 | -32.84742 | 151.93392 | 31180 ft | 468 kts | 17° |
| 2026-04-25 20:14 | -32.81588 | 151.94400 | 31489 ft | 469 kts | 17° |
| 2026-04-25 20:14 | -32.78433 | 151.95404 | 31894 ft | 469 kts | 17° |
| 2026-04-25 20:15 | -32.75287 | 151.96404 | 32291 ft | 469 kts | 16° |
| 2026-04-25 20:15 | -32.72179 | 151.97391 | 32685 ft | 469 kts | 16° |
| 2026-04-25 20:15 | -32.68993 | 151.98404 | 33079 ft | 469 kts | 16° |
| 2026-04-25 20:15 | -32.65877 | 151.99395 | 33466 ft | 469 kts | 16° |
| 2026-04-25 20:16 | -32.62727 | 152.00397 | 33853 ft | 469 kts | 16° |
| 2026-04-25 20:16 | -32.59575 | 152.01399 | 34269 ft | 469 kts | 15° |
| 2026-04-25 20:16 | -32.56422 | 152.02400 | 34627 ft | 469 kts | 15° |
| 2026-04-25 20:16 | -32.53273 | 152.03401 | 34984 ft | 469 kts | 15° |
| 2026-04-25 20:17 | -32.50134 | 152.04399 | 35331 ft | 469 kts | 15° |
| 2026-04-25 20:17 | -32.46975 | 152.05403 | 35667 ft | 469 kts | 15° |
| 2026-04-25 20:17 | -32.43819 | 152.06402 | 35990 ft | 469 kts | 15° |
| 2026-04-25 20:17 | -32.40665 | 152.07400 | 36296 ft | 470 kts | 15° |
| 2026-04-25 20:18 | -32.37509 | 152.08400 | 36606 ft | 470 kts | 15° |
| 2026-04-25 20:18 | -32.34346 | 152.09401 | 36916 ft | 470 kts | 15° |
| 2026-04-25 20:18 | -32.31188 | 152.10397 | 37228 ft | 470 kts | 15° |
| 2026-04-25 20:18 | -32.28024 | 152.11394 | 37342 ft | 471 kts | 15° |
| 2026-04-25 20:19 | -32.21693 | 152.13384 | 37365 ft | 471 kts | 15° |
| 2026-04-25 20:19 | -32.15341 | 152.15377 | 37362 ft | 473 kts | 15° |
| 2026-04-25 20:20 | -32.08992 | 152.17377 | 37355 ft | 473 kts | 15° |
| 2026-04-25 20:20 | -32.02639 | 152.19370 | 37364 ft | 473 kts | 15° |
| 2026-04-25 20:21 | -31.96275 | 152.21369 | 37365 ft | 473 kts | 15° |
| 2026-04-25 20:21 | -31.89946 | 152.23354 | 37371 ft | 474 kts | 15° |
| 2026-04-25 20:22 | -31.84600 | 152.25014 | 37373 ft | 474 kts | 15° |
| 2026-04-25 20:22 | -31.77175 | 152.27324 | 37375 ft | 475 kts | 15° |
| 2026-04-25 20:23 | -31.70783 | 152.29309 | 37367 ft | 476 kts | 15° |
| 2026-04-25 20:23 | -31.64384 | 152.31310 | 37375 ft | 476 kts | 15° |
| 2026-04-25 20:24 | -31.57979 | 152.33311 | 37378 ft | 476 kts | 15° |
| 2026-04-25 20:24 | -31.51568 | 152.35296 | 37385 ft | 477 kts | 15° |
| 2026-04-25 20:25 | -31.45147 | 152.37284 | 37390 ft | 477 kts | 15° |
| 2026-04-25 20:25 | -31.38728 | 152.39279 | 37390 ft | 477 kts | 15° |
| 2026-04-25 20:26 | -31.32306 | 152.41263 | 37374 ft | 478 kts | 15° |
| 2026-04-25 20:26 | -31.25872 | 152.43239 | 37371 ft | 478 kts | 14° |
| 2026-04-25 20:27 | -31.19433 | 152.45217 | 37373 ft | 479 kts | 15° |
| 2026-04-25 20:27 | -31.13037 | 152.47183 | 37376 ft | 479 kts | 15° |
| 2026-04-25 20:28 | -31.06589 | 152.49169 | 37372 ft | 479 kts | 15° |
| 2026-04-25 20:28 | -31.00143 | 152.51150 | 37370 ft | 480 kts | 14° |
| 2026-04-25 20:29 | -30.93682 | 152.53122 | 37370 ft | 480 kts | 15° |
| 2026-04-25 20:29 | -30.87215 | 152.55108 | 37367 ft | 481 kts | 15° |
| 2026-04-25 20:30 | -30.80744 | 152.57085 | 37360 ft | 482 kts | 15° |
| 2026-04-25 20:30 | -30.74287 | 152.59237 | 37361 ft | 482 kts | 18° |
| 2026-04-25 20:31 | -30.67901 | 152.61632 | 37362 ft | 482 kts | 18° |
| 2026-04-25 20:31 | -30.61514 | 152.64033 | 37371 ft | 483 kts | 18° |
| 2026-04-25 20:32 | -30.55104 | 152.66369 | 37350 ft | 483 kts | 17° |
| 2026-04-25 20:32 | -30.48713 | 152.68643 | 37357 ft | 484 kts | 17° |
| 2026-04-25 20:33 | -30.42280 | 152.70954 | 37359 ft | 484 kts | 17° |
| 2026-04-25 20:33 | -30.36894 | 152.72904 | 37361 ft | 484 kts | 17° |
| 2026-04-25 20:34 | -30.29413 | 152.75602 | 37361 ft | 484 kts | 17° |
| 2026-04-25 20:34 | -30.22975 | 152.77912 | 37350 ft | 484 kts | 17° |
| 2026-04-25 20:35 | -30.16543 | 152.80228 | 37352 ft | 484 kts | 17° |
| 2026-04-25 20:35 | -30.10098 | 152.82542 | 37342 ft | 485 kts | 17° |
| 2026-04-25 20:36 | -30.03652 | 152.84850 | 37342 ft | 485 kts | 17° |
| 2026-04-25 20:36 | -29.97196 | 152.87153 | 37342 ft | 486 kts | 17° |
| 2026-04-25 20:37 | -29.90740 | 152.89456 | 37325 ft | 486 kts | 17° |
| 2026-04-25 20:37 | -29.84280 | 152.91760 | 37320 ft | 487 kts | 17° |
| 2026-04-25 20:38 | -29.77852 | 152.94049 | 37317 ft | 487 kts | 17° |
| 2026-04-25 20:38 | -29.71384 | 152.96347 | 37316 ft | 487 kts | 17° |
| 2026-04-25 20:39 | -29.64902 | 152.98637 | 37315 ft | 487 kts | 17° |
| 2026-04-25 20:39 | -29.59464 | 153.00562 | 37316 ft | 488 kts | 17° |
| 2026-04-25 20:40 | -29.51922 | 153.03239 | 37311 ft | 488 kts | 17° |
| 2026-04-25 20:40 | -29.45426 | 153.05546 | 37310 ft | 488 kts | 17° |
| 2026-04-25 20:41 | -29.38933 | 153.07836 | 37306 ft | 489 kts | 17° |
| 2026-04-25 20:41 | -29.32430 | 153.10137 | 37308 ft | 489 kts | 17° |
| 2026-04-25 20:42 | -29.25922 | 153.12436 | 37311 ft | 489 kts | 17° |
| 2026-04-25 20:42 | -29.19416 | 153.14727 | 37307 ft | 489 kts | 17° |
| 2026-04-25 20:43 | -29.12908 | 153.17009 | 37304 ft | 490 kts | 16° |
| 2026-04-25 20:43 | -29.06387 | 153.19296 | 37300 ft | 490 kts | 16° |
| 2026-04-25 20:44 | -28.99870 | 153.21584 | 37304 ft | 490 kts | 16° |
| 2026-04-25 20:44 | -28.93348 | 153.23865 | 37292 ft | 490 kts | 16° |
| 2026-04-25 20:45 | -28.86868 | 153.26129 | 37290 ft | 490 kts | 16° |
| 2026-04-25 20:45 | -28.80342 | 153.28413 | 37287 ft | 490 kts | 16° |
| 2026-04-25 20:46 | -28.77078 | 153.29553 | 37073 ft | 491 kts | 16° |
| 2026-04-25 20:46 | -28.73783 | 153.30701 | 35998 ft | 500 kts | 16° |
| 2026-04-25 20:46 | -28.70429 | 153.31866 | 34980 ft | 507 kts | 16° |
| 2026-04-25 20:46 | -28.67042 | 153.33041 | 33987 ft | 508 kts | 16° |
| 2026-04-25 20:47 | -28.63665 | 153.34215 | 32498 ft | 507 kts | 17° |
| 2026-04-25 20:47 | -28.60313 | 153.35382 | 31300 ft | 501 kts | 17° |
| 2026-04-25 20:47 | -28.57007 | 153.36533 | 30238 ft | 493 kts | 18° |
| 2026-04-25 20:47 | -28.53765 | 153.37661 | 29197 ft | 482 kts | 18° |
| 2026-04-25 20:48 | -28.50623 | 153.38753 | 28754 ft | 460 kts | 18° |
| 2026-04-25 20:48 | -28.47625 | 153.39790 | 28174 ft | 444 kts | 18° |
| 2026-04-25 20:48 | -28.44716 | 153.40794 | 27607 ft | 430 kts | 18° |
| 2026-04-25 20:48 | -28.41862 | 153.41781 | 27058 ft | 428 kts | 18° |
| 2026-04-25 20:49 | -28.39012 | 153.42766 | 26513 ft | 428 kts | 18° |
| 2026-04-25 20:49 | -28.36168 | 153.43750 | 25985 ft | 427 kts | 18° |
| 2026-04-25 20:49 | -28.33329 | 153.44733 | 25454 ft | 426 kts | 19° |
| 2026-04-25 20:49 | -28.30501 | 153.45711 | 24939 ft | 424 kts | 19° |
| 2026-04-25 20:50 | -28.27682 | 153.46684 | 24435 ft | 422 kts | 19° |
| 2026-04-25 20:50 | -28.24908 | 153.47643 | 23947 ft | 421 kts | 19° |
| 2026-04-25 20:50 | -28.22120 | 153.48606 | 23402 ft | 418 kts | 19° |
| 2026-04-25 20:50 | -28.19327 | 153.49506 | 22927 ft | 416 kts | 13° |
| 2026-04-25 20:51 | -28.16464 | 153.49910 | 22461 ft | 415 kts | 3° |
| 2026-04-25 20:51 | -28.13591 | 153.49723 | 21982 ft | 413 kts | 352° |
| 2026-04-25 20:51 | -28.10763 | 153.49144 | 21488 ft | 411 kts | 350° |
| 2026-04-25 20:51 | -28.07960 | 153.48555 | 20991 ft | 409 kts | 350° |
| 2026-04-25 20:52 | -28.05169 | 153.47971 | 20471 ft | 407 kts | 350° |
| 2026-04-25 20:52 | -28.03325 | 153.47589 | 20137 ft | 405 kts | 350° |
| 2026-04-25 20:52 | -27.99625 | 153.46825 | 19422 ft | 403 kts | 350° |
| 2026-04-25 20:52 | -27.96874 | 153.46256 | 18890 ft | 401 kts | 351° |
| 2026-04-25 20:53 | -27.94131 | 153.45692 | 18330 ft | 400 kts | 350° |
| 2026-04-25 20:53 | -27.91403 | 153.45132 | 17768 ft | 396 kts | 351° |
| 2026-04-25 20:53 | -27.88704 | 153.44576 | 17244 ft | 392 kts | 351° |
| 2026-04-25 20:53 | -27.86036 | 153.44024 | 16692 ft | 388 kts | 351° |
| 2026-04-25 20:54 | -27.83395 | 153.43474 | 16173 ft | 384 kts | 351° |
| 2026-04-25 20:54 | -27.80787 | 153.42927 | 15665 ft | 379 kts | 351° |
| 2026-04-25 20:54 | -27.78204 | 153.42393 | 15134 ft | 376 kts | 351° |
| 2026-04-25 20:54 | -27.75646 | 153.41870 | 14628 ft | 372 kts | 351° |
| 2026-04-25 20:55 | -27.73145 | 153.41360 | 14130 ft | 368 kts | 351° |
| 2026-04-25 20:55 | -27.70636 | 153.40846 | 13589 ft | 365 kts | 351° |
| 2026-04-25 20:55 | -27.68157 | 153.40336 | 13097 ft | 360 kts | 351° |
| 2026-04-25 20:55 | -27.65710 | 153.39833 | 12591 ft | 355 kts | 351° |
| 2026-04-25 20:56 | -27.63285 | 153.39404 | 12101 ft | 350 kts | 357° |
| 2026-04-25 20:56 | -27.60857 | 153.39207 | 11483 ft | 350 kts | 358° |
| 2026-04-25 20:56 | -27.58423 | 153.39023 | 10882 ft | 350 kts | 359° |
| 2026-04-25 20:56 | -27.55995 | 153.38841 | 10458 ft | 345 kts | 359° |
| 2026-04-25 20:57 | -27.53655 | 153.38659 | 10340 ft | 330 kts | 359° |
| 2026-04-25 20:57 | -27.51412 | 153.38484 | 10220 ft | 318 kts | 359° |
| 2026-04-25 20:57 | -27.49257 | 153.38312 | 9937 ft | 302 kts | 359° |
| 2026-04-25 20:57 | -27.47215 | 153.38150 | 9630 ft | 286 kts | 360° |
| 2026-04-25 20:58 | -27.45287 | 153.37998 | 9371 ft | 271 kts | 0° |
| 2026-04-25 20:58 | -27.43452 | 153.37853 | 9108 ft | 258 kts | 0° |
| 2026-04-25 20:58 | -27.41704 | 153.37716 | 8848 ft | 248 kts | 1° |
| 2026-04-25 20:58 | -27.39986 | 153.37587 | 8614 ft | 247 kts | 1° |
| 2026-04-25 20:59 | -27.38271 | 153.37463 | 8360 ft | 246 kts | 1° |
| 2026-04-25 20:59 | -27.36562 | 153.37338 | 8112 ft | 246 kts | 1° |
| 2026-04-25 20:59 | -27.34860 | 153.37210 | 7867 ft | 245 kts | 1° |
| 2026-04-25 20:59 | -27.33159 | 153.37083 | 7619 ft | 244 kts | 1° |
| 2026-04-25 21:00 | -27.31465 | 153.36958 | 7373 ft | 244 kts | 1° |
| 2026-04-25 21:00 | -27.30917 | 153.36917 | 7293 ft | 244 kts | 1° |
| 2026-04-25 21:00 | -27.26416 | 153.36584 | 6661 ft | 243 kts | 1° |
| 2026-04-25 21:01 | -27.24713 | 153.36458 | 6400 ft | 242 kts | 1° |
| 2026-04-25 21:01 | -27.23056 | 153.36336 | 6146 ft | 241 kts | 1° |
| 2026-04-25 21:01 | -27.21398 | 153.36213 | 5894 ft | 238 kts | 1° |
| 2026-04-25 21:01 | -27.19754 | 153.36044 | 5643 ft | 239 kts | 351° |
| 2026-04-25 21:02 | -27.18283 | 153.35177 | 5387 ft | 244 kts | 317° |
| 2026-04-25 21:02 | -27.17262 | 153.33672 | 5214 ft | 241 kts | 303° |
| 2026-04-25 21:02 | -27.16386 | 153.32083 | 5016 ft | 238 kts | 301° |
| 2026-04-25 21:02 | -27.15797 | 153.30398 | 4828 ft | 229 kts | 276° |
| 2026-04-25 21:03 | -27.15783 | 153.28645 | 4643 ft | 223 kts | 258° |
| 2026-04-25 21:03 | -27.16207 | 153.27003 | 4429 ft | 216 kts | 239° |
| 2026-04-25 21:03 | -27.16697 | 153.26044 | 4291 ft | 212 kts | 229° |
| 2026-04-25 21:03 | -27.18060 | 153.24550 | 4101 ft | 201 kts | 207° |
| 2026-04-25 21:04 | -27.18857 | 153.24043 | 3997 ft | 198 kts | 200° |
| 2026-04-25 21:04 | -27.20090 | 153.23343 | 3782 ft | 198 kts | 200° |
| 2026-04-25 21:04 | -27.21316 | 153.22645 | 3529 ft | 197 kts | 199° |
| 2026-04-25 21:04 | -27.22535 | 153.21951 | 3273 ft | 196 kts | 199° |
| 2026-04-25 21:05 | -27.23745 | 153.21261 | 3010 ft | 195 kts | 199° |
| 2026-04-25 21:05 | -27.24946 | 153.20576 | 2756 ft | 193 kts | 200° |
| 2026-04-25 21:05 | -27.26133 | 153.19900 | 2493 ft | 191 kts | 199° |
| 2026-04-25 21:05 | -27.27315 | 153.19226 | 2243 ft | 189 kts | 200° |
| 2026-04-25 21:06 | -27.28473 | 153.18565 | 1997 ft | 185 kts | 200° |
| 2026-04-25 21:06 | -27.29598 | 153.17922 | 1738 ft | 176 kts | 200° |
| 2026-04-25 21:06 | -27.30633 | 153.17328 | 1526 ft | 156 kts | 200° |
| 2026-04-25 21:06 | -27.31238 | 153.16981 | 1397 ft | 141 kts | 199° |
| 2026-04-25 21:07 | -27.32354 | 153.16346 | 1150 ft | 131 kts | 200° |
| 2026-04-25 21:07 | -27.33157 | 153.15890 | 974 ft | 130 kts | 200° |
| 2026-04-25 21:07 | -27.33947 | 153.15440 | 834 ft | 131 kts | 200° |
| 2026-04-25 21:07 | -27.34751 | 153.14980 | 641 ft | 131 kts | 204° |
| 2026-04-25 21:08 | -27.35547 | 153.14532 | 490 ft | 128 kts | 205° |
| 2026-04-25 21:08 | -27.36353 | 153.14073 | 301 ft | 131 kts | 206° |
| 2026-04-25 21:08 | -27.37152 | 153.13616 | 147 ft | 128 kts | 207° |
| 2026-04-25 21:08 | -27.37923 | 153.13170 | 23 ft | 112 kts | 206° |
| 2026-04-25 21:09 | -27.38505 | 153.12808 | 23 ft | 8 kts | 295° |
| 2026-04-25 21:09 | -27.38464 | 153.12785 | 23 ft | 8 kts | 330° |
| 2026-04-25 21:09 | -27.38426 | 153.12726 | 22 ft | 11 kts | 296° |
| 2026-04-25 21:10 | -27.38386 | 153.12635 | 22 ft | 11 kts | 296° |
| 2026-04-25 21:10 | -27.38356 | 153.12588 | 22 ft | 1 kts | 316° |
| 2026-04-25 21:10 | -27.38344 | 153.12575 | 22 ft | 4 kts | 316° |
| 2026-04-25 21:10 | -27.38316 | 153.12545 | 22 ft | 7 kts | 315° |
| 2026-04-25 21:11 | -27.38285 | 153.12486 | 21 ft | 10 kts | 297° |
| 2026-04-25 21:11 | -27.38292 | 153.12405 | 21 ft | 13 kts | 212° |
| 2026-04-25 21:11 | -27.38377 | 153.12411 | 21 ft | 13 kts | 172° |
| 2026-04-25 21:11 | -27.38443 | 153.12368 | 21 ft | 10 kts | 264° |
| 2026-04-25 21:12 | -27.38420 | 153.12300 | 21 ft | 8 kts | 320° |
| 2026-04-25 21:12 | -27.38383 | 153.12272 | 21 ft | 7 kts | 324° |
| 2026-04-25 21:12 | -27.38370 | 153.12262 | 21 ft | 2 kts | 324° |
| 2026-04-25 21:12 | -27.38366 | 153.12258 | 21 ft | 1 kts | 325° |
| 2026-04-25 21:13 | -27.38364 | 153.12257 | 21 ft | 0 kts | 325° |